Time;durP1;ratioP1;P1;durP2;ratioP2;P2;SDS_P1;SDS_P2;PMS_P1;PMS_P2;Temp;Humidity;BMP_temperature;BMP_pressure;BME280_temperature;BME280_humidity;BME280_pressure;Samples;Min_cycle;Max_cycle;Signal;HPM_P1;HPM_P2
2023/04/24 00:02:23;;;;;;;5.45;4.20;;;15.80;93.30;;;;;;5051930;28;20033;-67
2023/04/24 00:04:49;;;;;;;5.53;3.97;;;15.80;93.50;;;;;;5052170;28;20404;-67
2023/04/24 00:07:19;;;;;;;6.95;4.07;;;15.70;93.50;;;;;;5052656;28;20082;-72
2023/04/24 00:09:45;;;;;;;5.70;3.80;;;15.70;93.60;;;;;;5053227;28;20100;-67
2023/04/24 00:12:11;;;;;;;6.53;4.10;;;15.70;93.50;;;;;;5052985;28;20056;-67
2023/04/24 00:14:37;;;;;;;7.13;4.38;;;15.70;93.70;;;;;;5052463;28;20033;-68
2023/04/24 00:17:02;;;;;;;5.72;4.05;;;15.70;93.70;;;;;;5052437;28;20064;-69
2023/04/24 00:19:28;;;;;;;6.63;4.43;;;15.70;93.80;;;;;;5052067;28;20029;-68
2023/04/24 00:21:54;;;;;;;5.78;4.25;;;15.60;93.60;;;;;;5052526;28;20351;-68
2023/04/24 00:24:20;;;;;;;4.88;4.30;;;15.60;93.90;;;;;;5052241;28;20040;-68
2023/04/24 00:26:46;;;;;;;10.25;4.38;;;15.60;93.90;;;;;;5052748;28;20369;-68
2023/04/24 00:29:12;;;;;;;6.82;4.28;;;15.50;94.00;;;;;;5052222;28;20021;-68
2023/04/24 00:31:37;;;;;;;5.45;3.97;;;15.50;94.00;;;;;;5051740;28;20025;-68
2023/04/24 00:34:04;;;;;;;7.05;4.35;;;15.50;94.20;;;;;;5051922;28;20037;-68
2023/04/24 00:36:30;;;;;;;10.15;4.22;;;15.40;94.00;;;;;;5051806;28;20100;-68
2023/04/24 00:38:56;;;;;;;7.10;4.72;;;15.40;94.00;;;;;;5052486;28;20025;-68
2023/04/24 00:41:22;;;;;;;7.00;3.97;;;15.40;93.80;;;;;;5052105;28;20024;-68
2023/04/24 00:43:48;;;;;;;6.10;4.30;;;15.30;93.90;;;;;;5052110;28;20091;-68
2023/04/24 00:46:15;;;;;;;6.40;5.15;;;15.30;93.90;;;;;;5052469;28;20033;-68
2023/04/24 00:48:41;;;;;;;6.45;4.45;;;15.40;93.80;;;;;;5051266;28;20013;-68
2023/04/24 00:51:07;;;;;;;8.30;4.45;;;15.30;93.90;;;;;;5051078;28;20365;-68
2023/04/24 00:53:32;;;;;;;6.50;5.35;;;15.40;94.00;;;;;;5050620;28;20033;-68
2023/04/24 00:55:59;;;;;;;6.78;4.43;;;15.30;94.00;;;;;;5050636;28;20029;-68
2023/04/24 00:58:25;;;;;;;7.95;4.93;;;15.30;94.20;;;;;;5049777;28;20033;-68
2023/04/24 01:00:53;;;;;;;8.45;4.60;;;15.30;94.10;;;;;;5050853;28;20029;-68
2023/04/24 01:03:21;;;;;;;6.05;4.90;;;15.30;93.90;;;;;;5050442;28;20027;-74
2023/04/24 01:05:47;;;;;;;7.93;4.55;;;15.40;93.60;;;;;;5050764;28;20021;-68
2023/04/24 01:08:14;;;;;;;7.40;4.60;;;15.30;93.60;;;;;;5050778;28;20535;-68
2023/04/24 01:10:41;;;;;;;7.97;4.78;;;15.30;93.40;;;;;;5050253;28;20377;-68
2023/04/24 01:13:08;;;;;;;5.88;4.75;;;15.40;93.30;;;;;;5050716;28;20021;-68
2023/04/24 01:15:34;;;;;;;8.10;4.65;;;15.40;93.20;;;;;;5049803;28;20389;-68
2023/04/24 01:18:00;;;;;;;4.90;4.38;;;15.30;93.20;;;;;;5053890;28;20364;-68
2023/04/24 01:20:26;;;;;;;5.28;4.25;;;15.30;93.20;;;;;;5053957;28;20027;-68
2023/04/24 01:22:53;;;;;;;6.20;4.93;;;15.40;93.30;;;;;;5054533;28;20036;-68
2023/04/24 01:25:18;;;;;;;6.97;4.75;;;15.30;93.40;;;;;;5054189;28;20029;-74
2023/04/24 01:27:44;;;;;;;5.07;4.60;;;15.30;93.30;;;;;;5053826;28;20024;-68
2023/04/24 01:30:11;;;;;;;6.60;4.60;;;15.30;93.40;;;;;;5054307;28;20023;-68
2023/04/24 01:32:37;;;;;;;5.15;4.65;;;15.30;93.50;;;;;;5054109;28;20033;-68
2023/04/24 01:35:03;;;;;;;5.75;4.95;;;15.30;93.40;;;;;;5054145;28;20090;-68
2023/04/24 01:37:29;;;;;;;6.60;5.07;;;15.30;93.40;;;;;;5054017;28;20074;-68
2023/04/24 01:39:55;;;;;;;7.88;5.32;;;15.30;93.70;;;;;;5054414;28;20017;-68
2023/04/24 01:42:21;;;;;;;7.85;4.90;;;15.30;93.80;;;;;;5054269;28;20083;-68
2023/04/24 01:44:47;;;;;;;6.88;5.28;;;15.30;93.90;;;;;;5053820;28;20045;-69
2023/04/24 01:47:13;;;;;;;5.78;5.15;;;15.20;94.20;;;;;;5053963;28;20094;-68
2023/04/24 01:49:39;;;;;;;7.75;5.72;;;15.20;94.60;;;;;;5053970;28;20025;-68
2023/04/24 01:52:05;;;;;;;9.40;6.10;;;15.20;94.60;;;;;;5053684;28;20036;-68
2023/04/24 01:54:31;;;;;;;7.20;5.63;;;15.10;94.60;;;;;;5053833;28;20024;-68
2023/04/24 01:56:56;;;;;;;6.82;5.28;;;15.10;94.80;;;;;;5054037;28;20021;-68
2023/04/24 01:59:25;;;;;;;6.80;6.05;;;15.10;95.00;;;;;;5053700;28;20028;-68
2023/04/24 02:01:50;;;;;;;8.00;5.93;;;15.10;95.30;;;;;;5053907;28;20048;-68
2023/04/24 02:04:16;;;;;;;8.43;5.13;;;15.10;95.20;;;;;;5053943;28;20060;-68
2023/04/24 02:06:42;;;;;;;9.05;6.03;;;15.00;95.60;;;;;;5052488;28;20049;-68
2023/04/24 02:09:07;;;;;;;6.85;4.63;;;15.10;96.00;;;;;;5053571;28;20025;-68
2023/04/24 02:11:33;;;;;;;8.48;5.35;;;15.10;96.50;;;;;;5052962;28;20033;-68
2023/04/24 02:13:59;;;;;;;10.75;5.50;;;15.00;96.30;;;;;;5054346;28;20094;-68
2023/04/24 02:16:25;;;;;;;7.07;4.72;;;14.90;96.20;;;;;;5053744;28;20085;-68
2023/04/24 02:18:50;;;;;;;8.40;4.53;;;14.90;96.40;;;;;;5054236;28;20028;-68
2023/04/24 02:21:16;;;;;;;5.28;3.97;;;14.80;96.60;;;;;;5054227;28;20028;-67
2023/04/24 02:23:42;;;;;;;6.22;4.03;;;14.70;96.90;;;;;;5053925;28;20025;-68
2023/04/24 02:26:07;;;;;;;6.30;4.40;;;14.70;96.90;;;;;;5054393;28;20013;-68
2023/04/24 02:28:33;;;;;;;5.93;3.90;;;14.60;97.10;;;;;;5053926;28;20051;-67
2023/04/24 02:30:59;;;;;;;5.45;3.97;;;14.50;97.30;;;;;;5054573;28;20037;-67
2023/04/24 02:33:25;;;;;;;4.10;3.17;;;14.50;97.00;;;;;;5053401;28;20189;-68
2023/04/24 02:35:51;;;;;;;6.55;3.42;;;14.50;97.00;;;;;;5054598;28;20025;-68
2023/04/24 02:38:16;;;;;;;5.60;4.03;;;14.50;97.10;;;;;;5054572;28;20029;-68
2023/04/24 02:40:42;;;;;;;7.07;3.40;;;14.40;97.00;;;;;;5053663;28;20020;-67
2023/04/24 02:43:08;;;;;;;6.03;3.25;;;14.40;96.90;;;;;;5054348;28;20078;-68
2023/04/24 02:45:34;;;;;;;5.53;3.65;;;14.40;97.20;;;;;;5054088;28;20053;-68
2023/04/24 02:48:00;;;;;;;4.88;3.20;;;14.30;97.10;;;;;;5054305;28;20373;-68
2023/04/24 02:50:25;;;;;;;3.88;3.15;;;14.30;97.20;;;;;;5053709;28;20104;-68
2023/04/24 02:52:51;;;;;;;5.00;3.67;;;14.20;97.30;;;;;;5054205;28;20466;-68
2023/04/24 02:55:17;;;;;;;7.05;3.95;;;14.20;97.60;;;;;;5053794;28;20130;-67
2023/04/24 02:57:42;;;;;;;5.93;3.13;;;14.10;97.80;;;;;;5053232;28;20220;-66
2023/04/24 03:00:09;;;;;;;3.70;3.28;;;14.10;98.10;;;;;;5053658;28;20029;-67
2023/04/24 03:02:34;;;;;;;7.25;3.40;;;14.10;98.30;;;;;;5049074;28;20427;-68
2023/04/24 03:05:00;;;;;;;4.13;3.67;;;14.00;98.50;;;;;;5053680;28;20021;-68
2023/04/24 03:07:26;;;;;;;4.13;2.90;;;14.00;98.60;;;;;;5053506;28;20373;-68
2023/04/24 03:09:51;;;;;;;5.25;3.30;;;14.00;98.80;;;;;;5053470;28;20056;-68
2023/04/24 03:12:20;;;;;;;5.18;3.28;;;14.00;98.90;;;;;;5053167;28;20021;-68
2023/04/24 03:14:45;;;;;;;3.30;3.00;;;14.00;99.00;;;;;;5052553;28;20474;-68
2023/04/24 03:17:11;;;;;;;3.97;3.15;;;13.90;99.10;;;;;;5053308;28;20023;-68
2023/04/24 03:19:37;;;;;;;3.03;2.72;;;14.00;99.20;;;;;;5052676;28;20024;-69
2023/04/24 03:22:03;;;;;;;4.15;2.85;;;13.90;99.00;;;;;;5053197;28;20047;-68
2023/04/24 03:24:28;;;;;;;3.78;2.75;;;14.00;99.20;;;;;;5052078;28;20043;-70
2023/04/24 03:26:55;;;;;;;3.22;2.92;;;13.90;99.20;;;;;;5053028;28;20017;-69
2023/04/24 03:29:21;;;;;;;4.20;2.83;;;13.90;99.30;;;;;;5052906;28;20033;-68
2023/04/24 03:31:47;;;;;;;5.45;3.55;;;13.90;99.60;;;;;;5051501;28;20024;-68
2023/04/24 03:34:12;;;;;;;3.92;2.90;;;13.90;99.60;;;;;;5052883;28;20029;-68
2023/04/24 03:36:38;;;;;;;3.63;2.90;;;13.90;99.80;;;;;;5052396;28;20025;-68
2023/04/24 03:39:04;;;;;;;3.78;3.15;;;13.80;99.90;;;;;;5052588;28;20036;-68
2023/04/24 03:41:30;;;;;;;4.75;2.80;;;13.80;99.90;;;;;;5052493;28;20381;-68
2023/04/24 03:43:56;;;;;;;5.20;3.40;;;13.80;99.90;;;;;;5052553;28;20025;-68
2023/04/24 03:46:21;;;;;;;4.70;3.13;;;13.80;99.90;;;;;;5052870;28;20025;-68
2023/04/24 03:48:47;;;;;;;4.70;3.00;;;13.80;99.90;;;;;;5052196;28;20539;-68
2023/04/24 03:51:12;;;;;;;3.38;2.92;;;13.80;99.90;;;;;;5052404;28;20045;-68
2023/04/24 03:53:38;;;;;;;4.60;3.42;;;13.80;99.90;;;;;;5051590;28;20440;-68
2023/04/24 03:56:04;;;;;;;3.30;3.00;;;13.80;99.90;;;;;;5052611;28;20492;-67
2023/04/24 03:58:29;;;;;;;2.88;2.60;;;13.80;99.90;;;;;;5051846;28;20076;-69
2023/04/24 04:00:57;;;;;;;4.03;3.08;;;13.80;99.90;;;;;;5052191;28;20021;-67
2023/04/24 04:03:23;;;;;;;5.18;3.17;;;13.80;99.90;;;;;;5052656;28;20033;-68
2023/04/24 04:05:49;;;;;;;2.88;2.67;;;13.80;99.90;;;;;;5052251;28;20856;-68
2023/04/24 04:08:15;;;;;;;3.28;2.97;;;13.80;99.90;;;;;;5052399;28;20389;-68
2023/04/24 04:10:40;;;;;;;3.53;2.88;;;13.80;99.90;;;;;;5052019;28;20024;-68
2023/04/24 04:13:06;;;;;;;4.55;2.90;;;13.90;99.90;;;;;;5052213;28;20091;-68
2023/04/24 04:15:32;;;;;;;4.50;3.10;;;13.80;99.90;;;;;;5052397;28;20032;-68
2023/04/24 04:17:57;;;;;;;5.10;3.22;;;13.90;99.90;;;;;;5052537;28;20033;-67
2023/04/24 04:20:23;;;;;;;3.85;3.15;;;13.90;99.90;;;;;;5052694;28;20116;-68
2023/04/24 04:22:49;;;;;;;7.30;3.47;;;13.90;99.90;;;;;;5052335;28;20065;-68
2023/04/24 04:25:14;;;;;;;4.22;3.05;;;14.00;99.90;;;;;;5052095;28;20033;-67
2023/04/24 04:27:41;;;;;;;4.38;3.03;;;14.00;99.90;;;;;;5051980;28;20025;-68
2023/04/24 04:30:09;;;;;;;5.32;3.17;;;14.00;99.90;;;;;;5051687;28;20049;-68
2023/04/24 04:32:35;;;;;;;5.13;3.15;;;14.00;99.90;;;;;;5051709;28;20082;-68
2023/04/24 04:35:04;;;;;;;4.25;3.35;;;14.10;99.90;;;;;;5052033;28;20033;-68
2023/04/24 04:37:31;;;;;;;2.85;2.45;;;14.10;99.90;;;;;;5052069;28;20032;-68
2023/04/24 04:39:57;;;;;;;3.33;2.67;;;14.10;99.90;;;;;;5051597;28;20473;-68
2023/04/24 04:42:24;;;;;;;4.82;2.85;;;14.20;99.90;;;;;;5052079;28;20056;-68
2023/04/24 04:44:50;;;;;;;2.90;2.53;;;14.20;99.90;;;;;;5051027;28;20045;-68
2023/04/24 04:47:17;;;;;;;3.20;2.63;;;14.30;99.90;;;;;;5051842;28;20021;-68
2023/04/24 04:49:43;;;;;;;4.85;2.90;;;14.30;99.90;;;;;;5051535;28;20017;-68
2023/04/24 04:52:09;;;;;;;3.05;2.75;;;14.30;99.90;;;;;;5053445;28;20032;-68
2023/04/24 04:54:34;;;;;;;4.43;2.60;;;14.30;99.90;;;;;;5054833;28;20033;-72
2023/04/24 04:57:00;;;;;;;4.60;2.42;;;14.30;99.90;;;;;;5055229;28;20029;-68
2023/04/24 04:59:26;;;;;;;5.40;2.38;;;14.30;99.90;;;;;;5055940;28;20458;-68
2023/04/24 05:01:52;;;;;;;4.78;2.35;;;14.30;99.90;;;;;;5055882;28;20036;-67
2023/04/24 05:04:18;;;;;;;4.50;2.50;;;14.40;99.90;;;;;;5052934;28;20096;-67
2023/04/24 05:06:44;;;;;;;2.83;2.53;;;14.40;99.90;;;;;;5055393;28;20086;-68
2023/04/24 05:09:10;;;;;;;3.00;2.42;;;14.40;99.90;;;;;;5055740;28;20444;-67
2023/04/24 05:11:36;;;;;;;2.88;2.38;;;14.40;99.90;;;;;;5054947;28;20045;-67
2023/04/24 05:14:02;;;;;;;3.60;2.80;;;14.40;99.90;;;;;;5053924;28;20029;-67
2023/04/24 05:16:27;;;;;;;3.58;2.65;;;14.40;99.90;;;;;;5055095;28;20036;-67
2023/04/24 05:18:53;;;;;;;3.88;2.80;;;14.40;99.90;;;;;;5055185;28;20017;-67
2023/04/24 05:21:18;;;;;;;4.95;2.70;;;14.50;99.90;;;;;;5055283;28;20040;-67
2023/04/24 05:23:44;;;;;;;6.78;2.60;;;14.50;99.90;;;;;;5055173;28;20476;-67
2023/04/24 05:26:10;;;;;;;5.47;2.88;;;14.50;99.90;;;;;;5054458;28;20043;-68
2023/04/24 05:28:36;;;;;;;4.95;2.80;;;14.60;99.90;;;;;;5054611;28;20029;-70
2023/04/24 05:31:03;;;;;;;3.15;2.75;;;14.70;99.90;;;;;;5054853;28;20017;-68
2023/04/24 05:33:28;;;;;;;6.35;2.85;;;14.80;99.90;;;;;;5054128;28;20068;-69
2023/04/24 05:35:54;;;;;;;3.47;2.63;;;14.90;99.50;;;;;;5054213;28;20025;-67
2023/04/24 05:38:20;;;;;;;4.00;2.30;;;15.00;99.10;;;;;;5054240;28;20104;-73
2023/04/24 05:40:46;;;;;;;3.00;2.70;;;15.00;98.50;;;;;;5041370;28;20466;-68
2023/04/24 05:43:12;;;;;;;2.85;2.58;;;15.10;98.70;;;;;;5047265;28;20017;-68
2023/04/24 05:45:38;;;;;;;4.35;2.47;;;15.20;98.10;;;;;;5051054;28;20079;-68
2023/04/24 05:48:04;;;;;;;3.53;2.53;;;15.30;97.80;;;;;;5050549;28;20067;-67
2023/04/24 05:50:30;;;;;;;4.80;2.60;;;15.40;97.20;;;;;;5051545;28;20060;-67
2023/04/24 05:52:57;;;;;;;4.70;2.45;;;15.50;96.60;;;;;;5052330;28;20487;-68
2023/04/24 05:55:24;;;;;;;2.97;2.33;;;15.70;96.30;;;;;;5052251;28;20032;-69
2023/04/24 05:57:49;;;;;;;4.95;2.30;;;15.90;95.30;;;;;;5049654;28;20017;-67
2023/04/24 06:00:15;;;;;;;2.35;2.15;;;16.00;94.40;;;;;;5051739;28;20363;-67
2023/04/24 06:02:41;;;;;;;2.50;2.10;;;16.10;93.40;;;;;;5055402;28;20624;-67
2023/04/24 06:05:08;;;;;;;4.57;1.95;;;16.10;93.20;;;;;;5062326;28;20047;-67
2023/04/24 06:07:34;;;;;;;3.00;2.10;;;16.10;92.70;;;;;;5055653;28;20040;-71
2023/04/24 06:10:00;;;;;;;2.72;2.10;;;16.00;92.70;;;;;;5051335;28;20056;-67
2023/04/24 06:12:25;;;;;;;6.78;2.30;;;15.90;92.50;;;;;;5051023;28;20114;-69
2023/04/24 06:14:51;;;;;;;4.13;2.00;;;15.90;92.90;;;;;;5050451;28;20025;-68
2023/04/24 06:17:17;;;;;;;2.75;1.75;;;16.00;92.50;;;;;;5051632;28;20053;-68
2023/04/24 06:19:43;;;;;;;3.55;1.98;;;15.90;92.40;;;;;;5049760;28;20032;-68
2023/04/24 06:22:08;;;;;;;3.53;2.05;;;15.90;92.40;;;;;;5049817;28;20024;-69
2023/04/24 06:24:34;;;;;;;4.07;1.60;;;15.80;92.30;;;;;;5050510;28;20047;-68
2023/04/24 06:27:01;;;;;;;6.25;2.22;;;15.80;92.20;;;;;;5049337;28;20342;-67
2023/04/24 06:29:27;;;;;;;2.45;1.98;;;15.70;92.20;;;;;;5051327;28;20025;-68
2023/04/24 06:31:52;;;;;;;3.67;2.17;;;15.60;92.30;;;;;;5048087;28;20016;-67
2023/04/24 06:34:18;;;;;;;2.45;2.08;;;15.60;92.40;;;;;;5049344;28;20457;-67
2023/04/24 06:36:44;;;;;;;2.95;2.13;;;15.50;92.50;;;;;;5050228;28;20032;-67
2023/04/24 06:39:10;;;;;;;6.70;2.33;;;15.50;93.00;;;;;;5050268;28;20032;-67
2023/04/24 06:41:35;;;;;;;2.33;2.00;;;15.50;93.20;;;;;;5052786;28;20100;-68
2023/04/24 06:44:01;;;;;;;5.50;2.10;;;15.40;93.50;;;;;;5012860;28;1123164;-67
2023/04/24 06:46:27;;;;;;;2.83;2.47;;;15.40;93.30;;;;;;5053114;28;20116;-68
2023/04/24 06:48:56;;;;;;;2.17;1.90;;;15.50;93.60;;;;;;5053223;28;20028;-67
2023/04/24 06:51:25;;;;;;;2.30;2.10;;;15.50;93.60;;;;;;5054366;28;20108;-67
2023/04/24 06:53:53;;;;;;;3.05;2.10;;;15.50;93.50;;;;;;5053903;28;20024;-67
2023/04/24 06:56:19;;;;;;;2.95;1.95;;;15.60;92.90;;;;;;5054183;28;20090;-68
2023/04/24 06:58:45;;;;;;;3.00;1.92;;;15.60;92.60;;;;;;5052444;28;20031;-68
2023/04/24 07:01:11;;;;;;;3.10;2.20;;;15.60;92.80;;;;;;5054073;28;20353;-68
2023/04/24 07:03:36;;;;;;;4.70;1.95;;;15.60;92.40;;;;;;5054293;28;20055;-68
2023/04/24 07:06:03;;;;;;;2.13;1.75;;;15.70;92.30;;;;;;5053695;28;20463;-68
2023/04/24 07:08:30;;;;;;;3.20;2.10;;;15.70;91.90;;;;;;5054262;28;20059;-68
2023/04/24 07:10:56;;;;;;;2.58;1.83;;;15.70;92.20;;;;;;5053638;28;20377;-66
2023/04/24 07:13:22;;;;;;;2.15;1.80;;;15.70;91.50;;;;;;5053446;28;20017;-66
2023/04/24 07:15:50;;;;;;;4.38;1.90;;;15.70;91.80;;;;;;5052914;28;20074;-68
2023/04/24 07:18:16;;;;;;;2.42;1.77;;;15.70;92.00;;;;;;5053749;28;20407;-67
2023/04/24 07:20:42;;;;;;;3.00;2.08;;;15.70;92.20;;;;;;5053538;28;20026;-73
2023/04/24 07:23:08;;;;;;;2.60;1.52;;;15.70;92.00;;;;;;5053559;28;20450;-68
2023/04/24 07:25:34;;;;;;;1.73;1.63;;;15.70;92.20;;;;;;5052388;28;20021;-67
2023/04/24 07:27:59;;;;;;;2.53;1.60;;;15.60;92.30;;;;;;5053149;28;20028;-67
2023/04/24 07:30:25;;;;;;;1.50;1.40;;;15.60;92.30;;;;;;5053642;28;20021;-67
2023/04/24 07:32:51;;;;;;;1.67;1.27;;;15.60;92.40;;;;;;5053168;28;20024;-68
2023/04/24 07:35:17;;;;;;;3.38;1.60;;;15.60;92.50;;;;;;5053449;28;20033;-67
2023/04/24 07:37:45;;;;;;;3.95;1.58;;;15.60;92.60;;;;;;5053348;28;20017;-68
2023/04/24 07:40:13;;;;;;;2.17;1.48;;;15.60;92.80;;;;;;5053804;28;20079;-67
2023/04/24 07:42:39;;;;;;;4.18;2.17;;;15.60;92.80;;;;;;5053365;28;20103;-67
2023/04/24 07:45:05;;;;;;;5.40;1.60;;;15.70;93.10;;;;;;5053084;28;20465;-67
2023/04/24 07:47:31;;;;;;;3.30;2.03;;;15.70;93.20;;;;;;5053360;28;20075;-67
2023/04/24 07:49:57;;;;;;;2.00;1.38;;;15.80;94.00;;;;;;5051027;28;20024;-68
2023/04/24 07:52:23;;;;;;;1.75;1.20;;;15.80;93.70;;;;;;5053205;28;20017;-67
2023/04/24 07:54:49;;;;;;;2.53;1.60;;;15.80;93.10;;;;;;5052546;28;20060;-68
2023/04/24 07:57:15;;;;;;;3.38;1.25;;;15.90;92.90;;;;;;5053157;28;20361;-67
2023/04/24 07:59:41;;;;;;;3.10;1.20;;;15.90;92.80;;;;;;5051788;28;20031;-67
2023/04/24 08:02:07;;;;;;;3.53;1.38;;;15.90;93.30;;;;;;5052734;28;20017;-68
2023/04/24 08:04:33;;;;;;;2.13;1.50;;;15.90;93.70;;;;;;5053053;28;20025;-68
2023/04/24 08:06:59;;;;;;;1.98;1.38;;;15.90;94.00;;;;;;5052923;28;20025;-68
2023/04/24 08:09:24;;;;;;;2.35;1.40;;;15.80;94.20;;;;;;5052976;28;20421;-68
2023/04/24 08:11:50;;;;;;;7.13;1.80;;;15.70;94.80;;;;;;5052602;28;20362;-68
2023/04/24 08:14:16;;;;;;;2.60;1.48;;;15.60;95.20;;;;;;5052509;28;20036;-68
2023/04/24 08:16:42;;;;;;;3.65;1.70;;;15.60;95.70;;;;;;5052832;28;20044;-68
2023/04/24 08:19:08;;;;;;;3.08;1.50;;;15.60;95.70;;;;;;5052451;28;20025;-67
2023/04/24 08:21:33;;;;;;;2.78;1.40;;;15.60;96.00;;;;;;5052712;28;20116;-67
2023/04/24 08:23:59;;;;;;;2.40;1.67;;;15.50;95.50;;;;;;5052055;28;20482;-67
2023/04/24 08:26:25;;;;;;;4.50;2.35;;;15.50;95.90;;;;;;5053066;28;20452;-68
2023/04/24 08:28:50;;;;;;;1.70;1.50;;;15.50;95.90;;;;;;5051710;28;20103;-67
2023/04/24 08:31:16;;;;;;;2.83;1.30;;;15.50;95.40;;;;;;5052765;28;20056;-68
2023/04/24 08:33:44;;;;;;;1.67;1.30;;;15.40;94.70;;;;;;5052588;28;20029;-67
2023/04/24 08:36:10;;;;;;;2.10;1.30;;;15.40;94.50;;;;;;5052339;28;20021;-68
2023/04/24 08:38:36;;;;;;;1.60;1.30;;;15.40;94.50;;;;;;5052386;28;20175;-69
2023/04/24 08:41:02;;;;;;;3.38;1.23;;;15.30;94.60;;;;;;5051792;28;20029;-69
2023/04/24 08:43:28;;;;;;;2.47;1.30;;;15.20;94.80;;;;;;5052498;28;20033;-68
2023/04/24 08:45:56;;;;;;;4.13;1.30;;;15.10;95.80;;;;;;5052217;28;20420;-67
2023/04/24 08:48:23;;;;;;;2.90;1.38;;;15.00;97.30;;;;;;5052509;28;20017;-67
2023/04/24 08:50:50;;;;;;;1.85;1.00;;;14.90;98.80;;;;;;5052271;28;20032;-74
2023/04/24 08:53:17;;;;;;;2.05;1.00;;;14.70;99.90;;;;;;5052456;28;20025;-67
2023/04/24 08:55:46;;;;;;;1.75;1.10;;;14.50;99.90;;;;;;5052665;28;20028;-67
2023/04/24 08:58:13;;;;;;;1.67;1.08;;;14.40;99.90;;;;;;5051907;28;20402;-67
2023/04/24 09:00:39;;;;;;;3.65;0.82;;;14.30;99.90;;;;;;5052181;28;20025;-67
2023/04/24 09:03:06;;;;;;;2.35;0.90;;;14.20;99.90;;;;;;5052059;28;20129;-67
2023/04/24 09:05:33;;;;;;;4.72;1.10;;;14.10;99.90;;;;;;5051266;28;20140;-68
2023/04/24 09:08:01;;;;;;;2.58;1.10;;;14.00;99.90;;;;;;5051995;28;20017;-67
2023/04/24 09:10:30;;;;;;;2.15;0.93;;;14.00;99.90;;;;;;5052335;28;20032;-68
2023/04/24 09:12:58;;;;;;;2.45;1.10;;;14.00;99.90;;;;;;5052003;28;20017;-67
2023/04/24 09:15:25;;;;;;;1.55;1.05;;;13.90;99.90;;;;;;5052321;28;20347;-67
2023/04/24 09:17:51;;;;;;;1.65;0.98;;;13.90;99.90;;;;;;5051993;28;20116;-71
2023/04/24 09:20:16;;;;;;;1.13;0.93;;;13.90;99.90;;;;;;5051977;28;20470;-67
2023/04/24 09:22:44;;;;;;;1.20;0.80;;;13.90;99.90;;;;;;5052242;28;20029;-68
2023/04/24 09:25:12;;;;;;;1.02;0.80;;;13.90;99.90;;;;;;5052000;28;20017;-68
2023/04/24 09:27:43;;;;;;;1.75;0.95;;;13.90;99.90;;;;;;5052214;28;20032;-67
2023/04/24 09:30:10;;;;;;;2.28;0.88;;;13.90;99.90;;;;;;5051916;28;20469;-68
2023/04/24 09:32:35;;;;;;;1.10;0.88;;;13.90;99.90;;;;;;5052117;28;20032;-68
2023/04/24 09:35:07;;;;;;;1.52;0.68;;;13.90;99.90;;;;;;5051630;28;20033;-67
2023/04/24 09:37:42;;;;;;;2.00;0.90;;;13.90;99.90;;;;;;5053095;28;20086;-66
2023/04/24 09:40:12;;;;;;;1.85;0.85;;;13.90;99.90;;;;;;5054119;28;20024;-68
2023/04/24 09:42:39;;;;;;;1.92;0.90;;;13.90;99.90;;;;;;5055946;28;20029;-68
2023/04/24 09:45:10;;;;;;;3.55;0.77;;;13.80;99.90;;;;;;5055236;28;20052;-68
2023/04/24 09:47:37;;;;;;;1.17;0.73;;;13.80;99.90;;;;;;5055602;28;20523;-67
2023/04/24 09:50:14;;;;;;;0.88;0.80;;;13.80;99.90;;;;;;5055275;28;20341;-68
2023/04/24 09:52:44;;;;;;;1.48;0.65;;;13.70;99.90;;;;;;5055620;28;20028;-67
2023/04/24 09:55:19;;;;;;;1.70;0.77;;;13.70;99.90;;;;;;5053638;28;20028;-68
2023/04/24 09:57:49;;;;;;;1.45;0.85;;;13.70;99.90;;;;;;5055711;28;20111;-67
2023/04/24 10:00:19;;;;;;;1.63;1.00;;;13.70;99.90;;;;;;5055025;28;20339;-68
2023/04/24 10:02:44;;;;;;;1.30;1.13;;;13.70;99.90;;;;;;5055214;28;20262;-68
2023/04/24 10:05:11;;;;;;;1.90;0.90;;;13.70;99.90;;;;;;5054857;28;20029;-68
2023/04/24 10:07:40;;;;;;;0.98;0.73;;;13.70;99.90;;;;;;5055462;28;20025;-67
2023/04/24 10:10:06;;;;;;;2.78;1.20;;;13.70;99.90;;;;;;5054728;28;20090;-68
2023/04/24 10:12:32;;;;;;;2.22;1.13;;;13.80;99.90;;;;;;5055232;28;20029;-68
2023/04/24 10:14:58;;;;;;;1.08;0.80;;;13.80;99.90;;;;;;5053313;28;20045;-68
2023/04/24 10:17:25;;;;;;;1.33;0.88;;;13.80;99.90;;;;;;5054976;28;20036;-68
2023/04/24 10:19:52;;;;;;;1.23;0.90;;;13.80;99.90;;;;;;5054495;28;20465;-71
2023/04/24 10:22:17;;;;;;;1.35;0.98;;;13.80;99.90;;;;;;5054534;28;20094;-67
2023/04/24 10:24:45;;;;;;;0.75;0.70;;;13.80;99.90;;;;;;5054646;28;20055;-67
2023/04/24 10:27:12;;;;;;;1.33;0.98;;;13.80;99.90;;;;;;5054138;28;20028;-67
2023/04/24 10:29:40;;;;;;;1.45;0.77;;;13.70;99.90;;;;;;5054609;28;20016;-67
2023/04/24 10:32:09;;;;;;;2.60;1.02;;;13.70;99.90;;;;;;5053903;28;20025;-67
2023/04/24 10:34:36;;;;;;;2.05;0.95;;;13.70;99.90;;;;;;5054492;28;20056;-67
2023/04/24 10:37:02;;;;;;;3.25;1.08;;;13.70;99.90;;;;;;5053860;28;20450;-68
2023/04/24 10:39:30;;;;;;;4.40;1.27;;;13.70;99.90;;;;;;5054784;28;20365;-67
2023/04/24 10:41:57;;;;;;;1.45;1.10;;;13.70;99.90;;;;;;5053885;28;20432;-74
2023/04/24 10:44:23;;;;;;;0.88;0.70;;;13.60;99.90;;;;;;5052891;28;20045;-68
2023/04/24 10:46:54;;;;;;;1.15;0.95;;;13.70;99.90;;;;;;5054673;28;20059;-68
2023/04/24 10:49:29;;;;;;;1.45;1.00;;;13.60;99.90;;;;;;5052933;28;20032;-68
2023/04/24 10:52:01;;;;;;;2.42;1.05;;;13.60;99.90;;;;;;5054475;28;20021;-68
2023/04/24 10:54:40;;;;;;;1.90;1.02;;;13.60;99.90;;;;;;5054447;28;20036;-68
2023/04/24 10:57:21;;;;;;;2.95;0.98;;;13.50;99.90;;;;;;5053611;28;20043;-68
2023/04/24 10:59:48;;;;;;;;;;;13.50;99.90;;;;;;5054572;28;20029;-68
2023/04/24 11:02:18;;;;;;;2.33;0.85;;;13.50;99.90;;;;;;5053527;28;19900;-68
2023/04/24 11:04:44;;;;;;;2.80;1.13;;;13.50;99.90;;;;;;5053859;28;20033;-67
2023/04/24 11:07:10;;;;;;;3.05;1.08;;;13.50;99.90;;;;;;5053783;28;20104;-68
2023/04/24 11:09:40;;;;;;;1.23;0.90;;;13.50;99.90;;;;;;5053972;28;20036;-68
2023/04/24 11:12:10;;;;;;;1.10;0.93;;;13.40;99.90;;;;;;5053674;28;20048;-69
2023/04/24 11:15:03;;;;;;;1.95;1.02;;;13.40;99.90;;;;;;5052666;28;20039;-68
2023/04/24 11:17:33;;;;;;;1.17;1.08;;;13.40;99.90;;;;;;5051850;28;20033;-68
2023/04/24 11:20:16;;;;;;;1.38;0.98;;;13.50;99.90;;;;;;5053542;28;20027;-75
2023/04/24 11:22:41;;;;;;;1.33;0.90;;;13.50;99.90;;;;;;5053925;28;20075;-68
2023/04/24 11:25:09;;;;;;;1.60;1.08;;;13.50;99.90;;;;;;5053367;28;20468;-68
2023/04/24 11:27:48;;;;;;;1.65;1.08;;;13.50;99.90;;;;;;5053566;28;20033;-68
2023/04/24 11:30:18;;;;;;;3.00;0.90;;;13.50;99.90;;;;;;5053366;28;20040;-68
2023/04/24 11:32:48;;;;;;;2.42;0.90;;;13.60;99.90;;;;;;5053339;28;20500;-68
2023/04/24 11:35:18;;;;;;;1.63;1.10;;;13.60;99.90;;;;;;5053124;28;20484;-68
2023/04/24 11:37:47;;;;;;;2.40;1.02;;;13.60;99.90;;;;;;5053594;28;20029;-68
2023/04/24 11:40:17;;;;;;;1.17;0.90;;;13.60;99.90;;;;;;5053036;28;20134;-68
2023/04/24 11:42:45;;;;;;;1.15;0.88;;;13.60;99.90;;;;;;5053288;28;20430;-67
2023/04/24 11:45:37;;;;;;;4.32;1.02;;;13.60;99.90;;;;;;5052864;28;20072;-68
2023/04/24 11:48:03;;;;;;;1.90;1.08;;;13.60;99.90;;;;;;5048715;28;20519;-68
2023/04/24 11:50:29;;;;;;;1.58;0.95;;;13.70;99.90;;;;;;5053174;28;20025;-68
2023/04/24 11:52:55;;;;;;;2.13;1.10;;;13.70;99.90;;;;;;5053351;28;20032;-67
2023/04/24 11:55:21;;;;;;;3.88;1.30;;;13.70;99.90;;;;;;5052847;28;20513;-67
2023/04/24 11:57:48;;;;;;;1.23;0.90;;;13.70;99.90;;;;;;5053247;28;20021;-67
2023/04/24 12:00:21;;;;;;;1.20;1.02;;;13.80;99.90;;;;;;5052219;28;20028;-67
2023/04/24 12:02:48;;;;;;;2.10;1.08;;;13.80;99.90;;;;;;5053007;28;20070;-67
2023/04/24 12:05:27;;;;;;;1.92;1.30;;;13.80;99.90;;;;;;5052607;28;20025;-68
2023/04/24 12:07:53;;;;;;;2.58;1.17;;;13.90;99.90;;;;;;5053030;28;20032;-68
2023/04/24 12:10:21;;;;;;;1.52;1.20;;;13.90;99.90;;;;;;5052978;28;20020;-68
2023/04/24 12:12:47;;;;;;;3.08;1.73;;;13.90;99.90;;;;;;5053064;28;20052;-68
2023/04/24 12:15:12;;;;;;;3.97;1.20;;;14.00;99.90;;;;;;5052475;28;20060;-67
2023/04/24 12:17:41;;;;;;;1.80;1.20;;;14.00;99.90;;;;;;5052725;28;20096;-67
2023/04/24 12:20:08;;;;;;;2.72;1.23;;;14.00;99.90;;;;;;5052105;28;20021;-69
2023/04/24 12:22:51;;;;;;;1.77;1.35;;;14.00;99.90;;;;;;5053197;28;20029;-67
2023/04/24 12:25:18;;;;;;;2.53;1.20;;;14.10;99.90;;;;;;5052392;28;20025;-68
2023/04/24 12:27:45;;;;;;;1.67;0.90;;;14.20;99.90;;;;;;5051809;28;20036;-68
2023/04/24 12:30:16;;;;;;;2.25;1.13;;;14.20;99.90;;;;;;5052407;28;20021;-69
2023/04/24 12:32:49;;;;;;;2.42;1.13;;;14.20;99.90;;;;;;5052838;28;20112;-67
2023/04/24 12:35:23;;;;;;;1.48;1.13;;;14.20;99.90;;;;;;5052161;28;20083;-68
2023/04/24 12:37:50;;;;;;;1.58;1.27;;;14.30;99.90;;;;;;5052137;28;20029;-67
2023/04/24 12:40:19;;;;;;;1.65;1.15;;;14.30;99.90;;;;;;5052231;28;20053;-67
2023/04/24 12:42:50;;;;;;;1.83;1.23;;;14.30;99.90;;;;;;5052557;28;20066;-67
2023/04/24 12:45:19;;;;;;;;;;;14.40;99.90;;;;;;5052320;28;20131;-67
2023/04/24 12:47:45;;;;;;;2.67;1.38;;;14.40;99.90;;;;;;5052518;28;19912;-68